sensor_id;sensor_type;location;lat;lon;timestamp;temperature;humidity
3644;DHT22;1838;50.742;7.158;2022-10-16T00:01:13;15.90;99.90
3644;DHT22;1838;50.742;7.158;2022-10-16T00:03:40;15.90;99.90
3644;DHT22;1838;50.742;7.158;2022-10-16T00:06:08;15.90;99.90
3644;DHT22;1838;50.742;7.158;2022-10-16T00:08:34;15.80;99.90
3644;DHT22;1838;50.742;7.158;2022-10-16T00:11:06;15.90;99.90
3644;DHT22;1838;50.742;7.158;2022-10-16T00:13:33;15.90;99.90
3644;DHT22;1838;50.742;7.158;2022-10-16T00:15:59;15.90;99.90
3644;DHT22;1838;50.742;7.158;2022-10-16T00:18:26;16.00;99.90
3644;DHT22;1838;50.742;7.158;2022-10-16T00:20:52;15.90;99.90
3644;DHT22;1838;50.742;7.158;2022-10-16T00:23:18;16.00;99.90
3644;DHT22;1838;50.742;7.158;2022-10-16T00:25:44;15.90;99.90
3644;DHT22;1838;50.742;7.158;2022-10-16T00:28:09;15.80;99.90
3644;DHT22;1838;50.742;7.158;2022-10-16T00:30:38;15.80;99.90
3644;DHT22;1838;50.742;7.158;2022-10-16T00:33:03;15.80;99.90
3644;DHT22;1838;50.742;7.158;2022-10-16T00:35:30;15.80;99.90
3644;DHT22;1838;50.742;7.158;2022-10-16T00:37:55;15.80;99.90
3644;DHT22;1838;50.742;7.158;2022-10-16T00:40:21;15.80;99.90
3644;DHT22;1838;50.742;7.158;2022-10-16T00:42:46;15.80;99.90
3644;DHT22;1838;50.742;7.158;2022-10-16T00:45:12;15.80;99.90
3644;DHT22;1838;50.742;7.158;2022-10-16T00:47:43;15.80;99.90
3644;DHT22;1838;50.742;7.158;2022-10-16T00:50:22;15.80;99.90
3644;DHT22;1838;50.742;7.158;2022-10-16T00:52:50;15.80;99.90
3644;DHT22;1838;50.742;7.158;2022-10-16T00:55:16;15.80;99.90
3644;DHT22;1838;50.742;7.158;2022-10-16T00:57:43;15.80;99.90
3644;DHT22;1838;50.742;7.158;2022-10-16T01:00:11;15.80;99.90
3644;DHT22;1838;50.742;7.158;2022-10-16T01:02:37;15.80;99.90
3644;DHT22;1838;50.742;7.158;2022-10-16T01:05:04;15.70;99.90
3644;DHT22;1838;50.742;7.158;2022-10-16T01:07:39;15.70;99.90
3644;DHT22;1838;50.742;7.158;2022-10-16T01:13:11;15.60;99.90
3644;DHT22;1838;50.742;7.158;2022-10-16T01:15:49;15.60;99.90
3644;DHT22;1838;50.742;7.158;2022-10-16T01:18:28;15.50;99.90
3644;DHT22;1838;50.742;7.158;2022-10-16T01:21:03;15.60;99.90
3644;DHT22;1838;50.742;7.158;2022-10-16T01:24:03;15.50;99.90
3644;DHT22;1838;50.742;7.158;2022-10-16T01:26:32;15.50;99.90
3644;DHT22;1838;50.742;7.158;2022-10-16T01:29:10;15.50;99.90
3644;DHT22;1838;50.742;7.158;2022-10-16T01:31:41;15.50;99.90
3644;DHT22;1838;50.742;7.158;2022-10-16T01:34:20;15.50;99.90
3644;DHT22;1838;50.742;7.158;2022-10-16T01:36:56;15.60;99.90
3644;DHT22;1838;50.742;7.158;2022-10-16T01:39:25;15.60;99.90
3644;DHT22;1838;50.742;7.158;2022-10-16T01:42:02;15.50;99.90
3644;DHT22;1838;50.742;7.158;2022-10-16T01:44:32;15.50;99.90
3644;DHT22;1838;50.742;7.158;2022-10-16T01:46:59;15.50;99.90
3644;DHT22;1838;50.742;7.158;2022-10-16T01:49:27;15.50;99.90
3644;DHT22;1838;50.742;7.158;2022-10-16T01:51:57;15.50;99.90
3644;DHT22;1838;50.742;7.158;2022-10-16T01:54:27;15.50;99.90
3644;DHT22;1838;50.742;7.158;2022-10-16T01:56:54;15.40;99.90
3644;DHT22;1838;50.742;7.158;2022-10-16T01:59:23;15.40;99.90
3644;DHT22;1838;50.742;7.158;2022-10-16T02:01:54;15.50;99.90
3644;DHT22;1838;50.742;7.158;2022-10-16T02:04:26;15.50;99.90
3644;DHT22;1838;50.742;7.158;2022-10-16T02:06:53;15.30;99.90
3644;DHT22;1838;50.742;7.158;2022-10-16T02:09:19;15.40;99.90
3644;DHT22;1838;50.742;7.158;2022-10-16T02:11:44;15.30;99.90
3644;DHT22;1838;50.742;7.158;2022-10-16T02:14:10;15.30;99.90
3644;DHT22;1838;50.742;7.158;2022-10-16T02:16:41;15.30;99.90
3644;DHT22;1838;50.742;7.158;2022-10-16T02:19:07;15.30;99.90
3644;DHT22;1838;50.742;7.158;2022-10-16T02:21:46;15.30;99.90
3644;DHT22;1838;50.742;7.158;2022-10-16T02:24:32;15.30;99.90
3644;DHT22;1838;50.742;7.158;2022-10-16T02:29:47;15.30;99.90
3644;DHT22;1838;50.742;7.158;2022-10-16T02:32:18;15.30;99.90
3644;DHT22;1838;50.742;7.158;2022-10-16T02:34:47;15.30;99.90
3644;DHT22;1838;50.742;7.158;2022-10-16T02:37:13;15.30;99.90
3644;DHT22;1838;50.742;7.158;2022-10-16T02:39:40;15.30;99.90
3644;DHT22;1838;50.742;7.158;2022-10-16T02:42:11;15.30;99.90
3644;DHT22;1838;50.742;7.158;2022-10-16T02:44:37;15.30;99.90
3644;DHT22;1838;50.742;7.158;2022-10-16T02:47:02;15.40;99.90
3644;DHT22;1838;50.742;7.158;2022-10-16T02:49:28;15.40;99.90
3644;DHT22;1838;50.742;7.158;2022-10-16T02:51:53;15.40;99.90
3644;DHT22;1838;50.742;7.158;2022-10-16T02:54:19;15.40;99.90
3644;DHT22;1838;50.742;7.158;2022-10-16T02:56:44;15.40;99.90
3644;DHT22;1838;50.742;7.158;2022-10-16T02:59:10;15.50;99.90
3644;DHT22;1838;50.742;7.158;2022-10-16T03:01:35;15.40;99.90
3644;DHT22;1838;50.742;7.158;2022-10-16T03:04:01;15.50;99.90
3644;DHT22;1838;50.742;7.158;2022-10-16T03:06:26;15.40;99.90
3644;DHT22;1838;50.742;7.158;2022-10-16T03:08:52;15.40;99.90
3644;DHT22;1838;50.742;7.158;2022-10-16T03:11:17;15.40;99.90
3644;DHT22;1838;50.742;7.158;2022-10-16T03:13:43;15.40;99.90
3644;DHT22;1838;50.742;7.158;2022-10-16T03:16:08;15.40;99.90
3644;DHT22;1838;50.742;7.158;2022-10-16T03:18:34;15.40;99.90
3644;DHT22;1838;50.742;7.158;2022-10-16T03:20:59;15.40;99.90
3644;DHT22;1838;50.742;7.158;2022-10-16T03:23:25;15.40;99.90
3644;DHT22;1838;50.742;7.158;2022-10-16T03:25:50;15.30;99.90
3644;DHT22;1838;50.742;7.158;2022-10-16T03:28:16;15.40;99.90
3644;DHT22;1838;50.742;7.158;2022-10-16T03:30:43;15.40;99.90
3644;DHT22;1838;50.742;7.158;2022-10-16T03:33:08;15.40;99.90
3644;DHT22;1838;50.742;7.158;2022-10-16T03:35:34;15.50;99.90
3644;DHT22;1838;50.742;7.158;2022-10-16T03:38:00;15.50;99.90
3644;DHT22;1838;50.742;7.158;2022-10-16T03:40:25;15.50;99.90
3644;DHT22;1838;50.742;7.158;2022-10-16T03:42:51;15.50;99.90
3644;DHT22;1838;50.742;7.158;2022-10-16T03:45:17;15.50;99.90
3644;DHT22;1838;50.742;7.158;2022-10-16T03:47:42;15.50;99.90
3644;DHT22;1838;50.742;7.158;2022-10-16T03:50:08;15.50;99.90
3644;DHT22;1838;50.742;7.158;2022-10-16T03:52:33;15.50;99.90
3644;DHT22;1838;50.742;7.158;2022-10-16T03:54:59;15.60;99.90
3644;DHT22;1838;50.742;7.158;2022-10-16T03:57:25;15.60;99.90
3644;DHT22;1838;50.742;7.158;2022-10-16T03:59:50;15.60;99.90
3644;DHT22;1838;50.742;7.158;2022-10-16T04:02:16;15.60;99.90
3644;DHT22;1838;50.742;7.158;2022-10-16T04:04:41;15.60;99.90
3644;DHT22;1838;50.742;7.158;2022-10-16T04:07:07;15.60;99.90
3644;DHT22;1838;50.742;7.158;2022-10-16T04:09:32;15.70;99.90
3644;DHT22;1838;50.742;7.158;2022-10-16T04:11:58;15.70;99.90
3644;DHT22;1838;50.742;7.158;2022-10-16T04:14:23;15.70;99.90
3644;DHT22;1838;50.742;7.158;2022-10-16T04:16:49;15.70;99.90
3644;DHT22;1838;50.742;7.158;2022-10-16T04:19:14;15.70;99.90
3644;DHT22;1838;50.742;7.158;2022-10-16T04:21:40;15.80;99.90
3644;DHT22;1838;50.742;7.158;2022-10-16T04:24:06;15.80;99.90
3644;DHT22;1838;50.742;7.158;2022-10-16T04:26:31;15.80;99.90
3644;DHT22;1838;50.742;7.158;2022-10-16T04:28:57;15.80;99.90
3644;DHT22;1838;50.742;7.158;2022-10-16T04:31:22;15.80;99.90
3644;DHT22;1838;50.742;7.158;2022-10-16T04:33:48;15.80;99.90
3644;DHT22;1838;50.742;7.158;2022-10-16T04:36:13;15.80;99.90
3644;DHT22;1838;50.742;7.158;2022-10-16T04:38:39;15.80;99.90
3644;DHT22;1838;50.742;7.158;2022-10-16T04:41:06;15.70;99.90
3644;DHT22;1838;50.742;7.158;2022-10-16T04:43:32;15.80;99.90
3644;DHT22;1838;50.742;7.158;2022-10-16T04:45:58;15.70;99.90
3644;DHT22;1838;50.742;7.158;2022-10-16T04:48:23;15.70;99.90
3644;DHT22;1838;50.742;7.158;2022-10-16T04:50:49;15.80;99.90
3644;DHT22;1838;50.742;7.158;2022-10-16T04:53:14;15.70;99.90
3644;DHT22;1838;50.742;7.158;2022-10-16T04:55:41;15.80;99.90
3644;DHT22;1838;50.742;7.158;2022-10-16T04:58:07;15.80;99.90
3644;DHT22;1838;50.742;7.158;2022-10-16T05:00:33;15.80;99.90
3644;DHT22;1838;50.742;7.158;2022-10-16T05:02:59;15.80;99.90
3644;DHT22;1838;50.742;7.158;2022-10-16T05:05:26;15.80;99.90
3644;DHT22;1838;50.742;7.158;2022-10-16T05:07:51;15.80;99.90
3644;DHT22;1838;50.742;7.158;2022-10-16T05:10:17;15.70;99.90
3644;DHT22;1838;50.742;7.158;2022-10-16T05:12:43;15.70;99.90
3644;DHT22;1838;50.742;7.158;2022-10-16T05:15:09;15.70;99.90
3644;DHT22;1838;50.742;7.158;2022-10-16T05:17:35;15.60;99.90
3644;DHT22;1838;50.742;7.158;2022-10-16T05:20:00;15.60;99.90
3644;DHT22;1838;50.742;7.158;2022-10-16T05:22:26;15.60;99.90
3644;DHT22;1838;50.742;7.158;2022-10-16T05:24:51;15.50;99.90
3644;DHT22;1838;50.742;7.158;2022-10-16T05:27:17;15.60;99.90
3644;DHT22;1838;50.742;7.158;2022-10-16T05:29:46;15.50;99.90
3644;DHT22;1838;50.742;7.158;2022-10-16T05:32:13;15.50;99.90
3644;DHT22;1838;50.742;7.158;2022-10-16T05:34:38;15.50;99.90
3644;DHT22;1838;50.742;7.158;2022-10-16T05:37:04;15.50;99.90
3644;DHT22;1838;50.742;7.158;2022-10-16T05:39:30;15.50;99.90
3644;DHT22;1838;50.742;7.158;2022-10-16T05:41:55;15.50;99.90
3644;DHT22;1838;50.742;7.158;2022-10-16T05:44:21;15.50;99.90
3644;DHT22;1838;50.742;7.158;2022-10-16T05:46:46;15.50;99.90
3644;DHT22;1838;50.742;7.158;2022-10-16T05:49:12;15.60;99.90
3644;DHT22;1838;50.742;7.158;2022-10-16T05:51:38;15.60;99.90
3644;DHT22;1838;50.742;7.158;2022-10-16T05:54:03;15.60;99.90
3644;DHT22;1838;50.742;7.158;2022-10-16T05:56:29;15.60;99.90
3644;DHT22;1838;50.742;7.158;2022-10-16T05:58:55;15.60;99.90
3644;DHT22;1838;50.742;7.158;2022-10-16T06:01:20;15.60;99.90
3644;DHT22;1838;50.742;7.158;2022-10-16T06:03:52;15.70;99.90
3644;DHT22;1838;50.742;7.158;2022-10-16T06:06:19;15.70;99.90
3644;DHT22;1838;50.742;7.158;2022-10-16T06:08:47;15.80;99.90
3644;DHT22;1838;50.742;7.158;2022-10-16T06:11:15;15.80;99.90
3644;DHT22;1838;50.742;7.158;2022-10-16T06:13:41;15.70;99.90
3644;DHT22;1838;50.742;7.158;2022-10-16T06:16:09;15.70;99.90
3644;DHT22;1838;50.742;7.158;2022-10-16T06:18:35;15.70;99.90
3644;DHT22;1838;50.742;7.158;2022-10-16T06:21:25;15.70;99.90
3644;DHT22;1838;50.742;7.158;2022-10-16T06:23:52;15.70;99.90
3644;DHT22;1838;50.742;7.158;2022-10-16T06:26:19;15.70;99.90
3644;DHT22;1838;50.742;7.158;2022-10-16T06:28:45;15.80;99.90
3644;DHT22;1838;50.742;7.158;2022-10-16T06:31:11;15.80;99.90
3644;DHT22;1838;50.742;7.158;2022-10-16T06:33:37;15.80;99.90
3644;DHT22;1838;50.742;7.158;2022-10-16T06:36:05;15.80;99.90
3644;DHT22;1838;50.742;7.158;2022-10-16T06:38:31;15.90;99.90
3644;DHT22;1838;50.742;7.158;2022-10-16T06:40:57;15.80;99.90
3644;DHT22;1838;50.742;7.158;2022-10-16T06:43:23;15.80;99.90
3644;DHT22;1838;50.742;7.158;2022-10-16T06:45:56;15.90;99.90
3644;DHT22;1838;50.742;7.158;2022-10-16T06:48:23;15.90;99.90
3644;DHT22;1838;50.742;7.158;2022-10-16T06:51:19;15.90;99.90
3644;DHT22;1838;50.742;7.158;2022-10-16T06:53:47;15.90;99.90
3644;DHT22;1838;50.742;7.158;2022-10-16T06:56:22;16.00;99.90
3644;DHT22;1838;50.742;7.158;2022-10-16T06:58:49;16.00;99.90
3644;DHT22;1838;50.742;7.158;2022-10-16T07:01:16;16.10;99.90
3644;DHT22;1838;50.742;7.158;2022-10-16T07:03:44;16.10;99.90
3644;DHT22;1838;50.742;7.158;2022-10-16T07:06:11;16.10;99.90
3644;DHT22;1838;50.742;7.158;2022-10-16T07:08:39;16.10;99.90
3644;DHT22;1838;50.742;7.158;2022-10-16T07:11:10;16.20;99.90
3644;DHT22;1838;50.742;7.158;2022-10-16T07:13:38;16.20;99.90
3644;DHT22;1838;50.742;7.158;2022-10-16T07:16:08;16.10;99.90
3644;DHT22;1838;50.742;7.158;2022-10-16T07:18:34;16.10;99.90
3644;DHT22;1838;50.742;7.158;2022-10-16T07:21:12;16.10;99.90
3644;DHT22;1838;50.742;7.158;2022-10-16T07:23:38;16.10;99.90
3644;DHT22;1838;50.742;7.158;2022-10-16T07:26:04;16.20;99.90
3644;DHT22;1838;50.742;7.158;2022-10-16T07:28:31;16.20;99.90
3644;DHT22;1838;50.742;7.158;2022-10-16T07:31:03;16.30;99.90
3644;DHT22;1838;50.742;7.158;2022-10-16T07:33:30;16.20;99.90
3644;DHT22;1838;50.742;7.158;2022-10-16T07:35:56;16.20;99.90
3644;DHT22;1838;50.742;7.158;2022-10-16T07:38:22;16.30;99.90
3644;DHT22;1838;50.742;7.158;2022-10-16T07:40:48;16.30;99.90
3644;DHT22;1838;50.742;7.158;2022-10-16T07:43:14;16.40;99.90
3644;DHT22;1838;50.742;7.158;2022-10-16T07:45:48;16.40;99.90
3644;DHT22;1838;50.742;7.158;2022-10-16T07:48:14;16.50;99.90
3644;DHT22;1838;50.742;7.158;2022-10-16T07:50:40;16.50;99.90
3644;DHT22;1838;50.742;7.158;2022-10-16T07:53:06;16.50;99.90
3644;DHT22;1838;50.742;7.158;2022-10-16T07:55:32;16.40;99.90
3644;DHT22;1838;50.742;7.158;2022-10-16T07:57:58;16.40;99.90
3644;DHT22;1838;50.742;7.158;2022-10-16T08:00:23;16.40;99.90
3644;DHT22;1838;50.742;7.158;2022-10-16T08:02:49;16.50;99.90
3644;DHT22;1838;50.742;7.158;2022-10-16T08:05:14;16.50;99.90
3644;DHT22;1838;50.742;7.158;2022-10-16T08:07:40;16.60;99.90
3644;DHT22;1838;50.742;7.158;2022-10-16T08:10:06;16.70;99.90
3644;DHT22;1838;50.742;7.158;2022-10-16T08:12:31;16.70;99.90
3644;DHT22;1838;50.742;7.158;2022-10-16T08:14:57;16.70;99.90
3644;DHT22;1838;50.742;7.158;2022-10-16T08:17:22;16.70;99.90
3644;DHT22;1838;50.742;7.158;2022-10-16T08:19:48;16.80;99.90
3644;DHT22;1838;50.742;7.158;2022-10-16T08:22:14;16.80;99.90
3644;DHT22;1838;50.742;7.158;2022-10-16T08:24:40;16.80;99.90
3644;DHT22;1838;50.742;7.158;2022-10-16T08:27:06;16.80;99.90
3644;DHT22;1838;50.742;7.158;2022-10-16T08:29:32;16.90;99.90
3644;DHT22;1838;50.742;7.158;2022-10-16T08:31:58;16.90;99.90
3644;DHT22;1838;50.742;7.158;2022-10-16T08:34:23;17.00;99.90
3644;DHT22;1838;50.742;7.158;2022-10-16T08:36:49;17.00;99.90
3644;DHT22;1838;50.742;7.158;2022-10-16T08:39:15;17.00;99.90
3644;DHT22;1838;50.742;7.158;2022-10-16T08:45:32;17.20;99.90
3644;DHT22;1838;50.742;7.158;2022-10-16T08:50:33;17.40;99.90
3644;DHT22;1838;50.742;7.158;2022-10-16T08:53:04;17.40;99.90
3644;DHT22;1838;50.742;7.158;2022-10-16T08:55:49;17.40;99.90
3644;DHT22;1838;50.742;7.158;2022-10-16T08:58:19;17.50;99.90
3644;DHT22;1838;50.742;7.158;2022-10-16T09:01:09;17.50;99.90
3644;DHT22;1838;50.742;7.158;2022-10-16T09:04:07;17.50;99.90
3644;DHT22;1838;50.742;7.158;2022-10-16T09:11:56;17.70;99.90
3644;DHT22;1838;50.742;7.158;2022-10-16T09:17:56;17.90;99.90
3644;DHT22;1838;50.742;7.158;2022-10-16T09:23:21;18.20;99.90
3644;DHT22;1838;50.742;7.158;2022-10-16T09:25:49;18.30;99.90
3644;DHT22;1838;50.742;7.158;2022-10-16T09:28:17;18.30;99.90
3644;DHT22;1838;50.742;7.158;2022-10-16T09:30:43;18.40;99.90
3644;DHT22;1838;50.742;7.158;2022-10-16T09:33:10;18.40;99.90
3644;DHT22;1838;50.742;7.158;2022-10-16T09:35:44;18.50;99.90
3644;DHT22;1838;50.742;7.158;2022-10-16T09:38:31;18.60;99.90
3644;DHT22;1838;50.742;7.158;2022-10-16T09:41:01;18.70;99.90
3644;DHT22;1838;50.742;7.158;2022-10-16T09:43:39;19.00;99.90
3644;DHT22;1838;50.742;7.158;2022-10-16T09:46:25;19.20;99.90
3644;DHT22;1838;50.742;7.158;2022-10-16T09:48:55;19.50;99.90
3644;DHT22;1838;50.742;7.158;2022-10-16T09:54:13;20.00;99.90
3644;DHT22;1838;50.742;7.158;2022-10-16T09:56:39;20.30;99.90
3644;DHT22;1838;50.742;7.158;2022-10-16T09:59:12;20.40;99.90
3644;DHT22;1838;50.742;7.158;2022-10-16T10:01:40;20.60;99.90
3644;DHT22;1838;50.742;7.158;2022-10-16T10:04:07;20.70;99.90
3644;DHT22;1838;50.742;7.158;2022-10-16T10:06:35;20.80;99.90
3644;DHT22;1838;50.742;7.158;2022-10-16T10:09:16;20.80;99.90
3644;DHT22;1838;50.742;7.158;2022-10-16T10:17:09;21.30;99.90
3644;DHT22;1838;50.742;7.158;2022-10-16T10:19:50;21.50;99.90
3644;DHT22;1838;50.742;7.158;2022-10-16T10:22:42;21.50;99.90
3644;DHT22;1838;50.742;7.158;2022-10-16T10:33:57;22.20;99.90
3644;DHT22;1838;50.742;7.158;2022-10-16T10:36:40;22.40;99.90
3644;DHT22;1838;50.742;7.158;2022-10-16T10:39:17;22.50;99.90
3644;DHT22;1838;50.742;7.158;2022-10-16T10:44:54;22.70;99.90
3644;DHT22;1838;50.742;7.158;2022-10-16T10:58:49;22.70;99.90
3644;DHT22;1838;50.742;7.158;2022-10-16T11:01:44;22.90;99.90
3644;DHT22;1838;50.742;7.158;2022-10-16T11:06:57;23.30;99.90
3644;DHT22;1838;50.742;7.158;2022-10-16T11:09:32;23.40;99.90
3644;DHT22;1838;50.742;7.158;2022-10-16T11:12:23;23.60;99.90
3644;DHT22;1838;50.742;7.158;2022-10-16T11:15:02;23.80;99.90
3644;DHT22;1838;50.742;7.158;2022-10-16T11:20:26;24.00;99.90
3644;DHT22;1838;50.742;7.158;2022-10-16T11:23:00;24.10;99.90
3644;DHT22;1838;50.742;7.158;2022-10-16T11:25:32;24.00;99.90
3644;DHT22;1838;50.742;7.158;2022-10-16T11:30:51;23.60;99.90
3644;DHT22;1838;50.742;7.158;2022-10-16T11:39:02;23.00;99.90
3644;DHT22;1838;50.742;7.158;2022-10-16T11:41:31;23.00;99.90
3644;DHT22;1838;50.742;7.158;2022-10-16T11:46:58;23.10;99.90
3644;DHT22;1838;50.742;7.158;2022-10-16T11:49:27;23.30;99.90
3644;DHT22;1838;50.742;7.158;2022-10-16T11:52:06;23.50;99.90
3644;DHT22;1838;50.742;7.158;2022-10-16T11:57:18;23.10;99.90
3644;DHT22;1838;50.742;7.158;2022-10-16T11:59:52;22.90;99.90
3644;DHT22;1838;50.742;7.158;2022-10-16T12:05:12;23.00;99.90
3644;DHT22;1838;50.742;7.158;2022-10-16T12:08:13;23.00;99.90
3644;DHT22;1838;50.742;7.158;2022-10-16T12:10:41;23.00;99.90
3644;DHT22;1838;50.742;7.158;2022-10-16T12:13:33;22.90;99.90
3644;DHT22;1838;50.742;7.158;2022-10-16T12:18:38;23.10;99.90
3644;DHT22;1838;50.742;7.158;2022-10-16T12:21:04;23.20;99.90
3644;DHT22;1838;50.742;7.158;2022-10-16T12:23:47;23.30;99.90
3644;DHT22;1838;50.742;7.158;2022-10-16T12:26:13;23.40;99.90
3644;DHT22;1838;50.742;7.158;2022-10-16T12:28:38;23.50;99.90
3644;DHT22;1838;50.742;7.158;2022-10-16T12:31:07;23.60;99.90
3644;DHT22;1838;50.742;7.158;2022-10-16T12:33:37;23.50;99.90
3644;DHT22;1838;50.742;7.158;2022-10-16T12:36:15;23.40;99.90
3644;DHT22;1838;50.742;7.158;2022-10-16T12:38:52;23.30;99.90
3644;DHT22;1838;50.742;7.158;2022-10-16T12:43:51;23.10;99.90
3644;DHT22;1838;50.742;7.158;2022-10-16T12:48:43;23.10;99.90
3644;DHT22;1838;50.742;7.158;2022-10-16T12:53:58;23.20;99.90
3644;DHT22;1838;50.742;7.158;2022-10-16T12:56:49;23.20;99.90
3644;DHT22;1838;50.742;7.158;2022-10-16T12:59:24;23.10;99.90
3644;DHT22;1838;50.742;7.158;2022-10-16T13:07:40;23.30;99.90
3644;DHT22;1838;50.742;7.158;2022-10-16T13:15:47;23.40;99.90
3644;DHT22;1838;50.742;7.158;2022-10-16T13:21:16;23.40;99.90
3644;DHT22;1838;50.742;7.158;2022-10-16T13:24:20;23.40;99.90
3644;DHT22;1838;50.742;7.158;2022-10-16T13:27:09;23.40;99.90
3644;DHT22;1838;50.742;7.158;2022-10-16T13:29:39;23.30;99.90
3644;DHT22;1838;50.742;7.158;2022-10-16T13:32:09;23.20;99.90
3644;DHT22;1838;50.742;7.158;2022-10-16T13:34:44;23.00;99.90
3644;DHT22;1838;50.742;7.158;2022-10-16T13:37:21;22.90;99.90
3644;DHT22;1838;50.742;7.158;2022-10-16T13:39:47;22.90;99.90
3644;DHT22;1838;50.742;7.158;2022-10-16T13:42:27;22.90;99.90
3644;DHT22;1838;50.742;7.158;2022-10-16T13:44:55;23.00;99.90
3644;DHT22;1838;50.742;7.158;2022-10-16T13:47:26;23.10;99.90
3644;DHT22;1838;50.742;7.158;2022-10-16T13:50:04;23.10;99.90
3644;DHT22;1838;50.742;7.158;2022-10-16T13:52:31;23.20;99.90
3644;DHT22;1838;50.742;7.158;2022-10-16T13:54:56;23.20;99.90
3644;DHT22;1838;50.742;7.158;2022-10-16T13:57:24;23.10;99.90
3644;DHT22;1838;50.742;7.158;2022-10-16T13:59:50;23.00;99.90
3644;DHT22;1838;50.742;7.158;2022-10-16T14:02:27;22.80;99.90
3644;DHT22;1838;50.742;7.158;2022-10-16T14:04:55;22.60;99.90
3644;DHT22;1838;50.742;7.158;2022-10-16T14:07:31;22.30;99.90
3644;DHT22;1838;50.742;7.158;2022-10-16T14:10:04;22.10;99.90
3644;DHT22;1838;50.742;7.158;2022-10-16T14:12:30;22.10;99.90
3644;DHT22;1838;50.742;7.158;2022-10-16T14:14:57;22.10;99.90
3644;DHT22;1838;50.742;7.158;2022-10-16T14:17:26;22.00;99.90
3644;DHT22;1838;50.742;7.158;2022-10-16T14:19:55;22.00;99.90
3644;DHT22;1838;50.742;7.158;2022-10-16T14:22:39;22.00;99.90
3644;DHT22;1838;50.742;7.158;2022-10-16T14:30:53;22.00;99.90
3644;DHT22;1838;50.742;7.158;2022-10-16T14:33:23;21.90;99.90
3644;DHT22;1838;50.742;7.158;2022-10-16T14:36:03;21.80;99.90
3644;DHT22;1838;50.742;7.158;2022-10-16T14:38:30;21.70;99.90
3644;DHT22;1838;50.742;7.158;2022-10-16T14:40:58;21.70;99.90
3644;DHT22;1838;50.742;7.158;2022-10-16T14:43:43;21.70;99.90
3644;DHT22;1838;50.742;7.158;2022-10-16T14:46:14;21.70;99.90
3644;DHT22;1838;50.742;7.158;2022-10-16T14:48:43;21.60;99.90
3644;DHT22;1838;50.742;7.158;2022-10-16T14:51:17;21.60;99.90
3644;DHT22;1838;50.742;7.158;2022-10-16T14:53:43;21.60;99.90
3644;DHT22;1838;50.742;7.158;2022-10-16T14:56:23;21.60;99.90
3644;DHT22;1838;50.742;7.158;2022-10-16T14:58:52;21.60;99.90
3644;DHT22;1838;50.742;7.158;2022-10-16T15:01:18;21.60;99.90
3644;DHT22;1838;50.742;7.158;2022-10-16T15:03:44;21.60;99.90
3644;DHT22;1838;50.742;7.158;2022-10-16T15:06:11;21.60;99.90
3644;DHT22;1838;50.742;7.158;2022-10-16T15:08:37;21.50;99.90
3644;DHT22;1838;50.742;7.158;2022-10-16T15:11:03;21.40;99.90
3644;DHT22;1838;50.742;7.158;2022-10-16T15:13:29;21.30;99.90
3644;DHT22;1838;50.742;7.158;2022-10-16T15:15:54;21.30;99.90
3644;DHT22;1838;50.742;7.158;2022-10-16T15:18:20;21.30;99.90
3644;DHT22;1838;50.742;7.158;2022-10-16T15:20:50;21.20;99.90
3644;DHT22;1838;50.742;7.158;2022-10-16T15:23:18;21.20;99.90
3644;DHT22;1838;50.742;7.158;2022-10-16T15:25:51;21.10;99.90
3644;DHT22;1838;50.742;7.158;2022-10-16T15:28:18;21.20;99.90
3644;DHT22;1838;50.742;7.158;2022-10-16T15:30:45;21.20;99.90
3644;DHT22;1838;50.742;7.158;2022-10-16T15:33:20;21.20;99.90
3644;DHT22;1838;50.742;7.158;2022-10-16T15:35:50;21.20;99.90
3644;DHT22;1838;50.742;7.158;2022-10-16T15:38:17;21.20;99.90
3644;DHT22;1838;50.742;7.158;2022-10-16T15:40:43;21.20;99.90
3644;DHT22;1838;50.742;7.158;2022-10-16T15:43:08;21.20;99.90
3644;DHT22;1838;50.742;7.158;2022-10-16T15:45:34;21.20;99.90
3644;DHT22;1838;50.742;7.158;2022-10-16T15:48:00;21.20;99.90
3644;DHT22;1838;50.742;7.158;2022-10-16T15:50:26;21.20;99.90
3644;DHT22;1838;50.742;7.158;2022-10-16T15:52:52;21.20;99.90
3644;DHT22;1838;50.742;7.158;2022-10-16T15:55:17;21.20;99.90
3644;DHT22;1838;50.742;7.158;2022-10-16T15:57:44;21.10;99.90
3644;DHT22;1838;50.742;7.158;2022-10-16T16:00:16;21.10;99.90
3644;DHT22;1838;50.742;7.158;2022-10-16T16:02:43;21.00;99.90
3644;DHT22;1838;50.742;7.158;2022-10-16T16:05:14;20.80;99.90
3644;DHT22;1838;50.742;7.158;2022-10-16T16:07:40;20.80;99.90
3644;DHT22;1838;50.742;7.158;2022-10-16T16:10:07;20.80;99.90
3644;DHT22;1838;50.742;7.158;2022-10-16T16:12:34;20.70;99.90
3644;DHT22;1838;50.742;7.158;2022-10-16T16:14:59;20.50;99.90
3644;DHT22;1838;50.742;7.158;2022-10-16T16:17:25;20.50;99.90
3644;DHT22;1838;50.742;7.158;2022-10-16T16:19:51;20.30;99.90
3644;DHT22;1838;50.742;7.158;2022-10-16T16:22:17;20.20;99.90
3644;DHT22;1838;50.742;7.158;2022-10-16T16:24:42;20.10;99.90
3644;DHT22;1838;50.742;7.158;2022-10-16T16:27:08;20.10;99.90
3644;DHT22;1838;50.742;7.158;2022-10-16T16:29:33;20.00;99.90
3644;DHT22;1838;50.742;7.158;2022-10-16T16:32:00;20.00;99.90
3644;DHT22;1838;50.742;7.158;2022-10-16T16:34:26;19.90;99.90
3644;DHT22;1838;50.742;7.158;2022-10-16T16:36:53;19.80;99.90
3644;DHT22;1838;50.742;7.158;2022-10-16T16:39:18;19.90;99.90
3644;DHT22;1838;50.742;7.158;2022-10-16T16:41:44;19.80;99.90
3644;DHT22;1838;50.742;7.158;2022-10-16T16:44:13;19.80;99.90
3644;DHT22;1838;50.742;7.158;2022-10-16T16:46:39;19.90;99.90
3644;DHT22;1838;50.742;7.158;2022-10-16T16:49:05;19.80;99.90
3644;DHT22;1838;50.742;7.158;2022-10-16T16:51:32;19.80;99.90
3644;DHT22;1838;50.742;7.158;2022-10-16T16:53:58;19.80;99.90
3644;DHT22;1838;50.742;7.158;2022-10-16T16:56:24;19.70;99.90
3644;DHT22;1838;50.742;7.158;2022-10-16T16:58:52;19.70;99.90
3644;DHT22;1838;50.742;7.158;2022-10-16T17:01:18;19.60;99.90
3644;DHT22;1838;50.742;7.158;2022-10-16T17:03:44;19.70;99.90
3644;DHT22;1838;50.742;7.158;2022-10-16T17:06:11;19.60;99.90
3644;DHT22;1838;50.742;7.158;2022-10-16T17:08:38;19.60;99.90
3644;DHT22;1838;50.742;7.158;2022-10-16T17:11:14;19.60;99.90
3644;DHT22;1838;50.742;7.158;2022-10-16T17:13:40;19.60;99.90
3644;DHT22;1838;50.742;7.158;2022-10-16T17:16:06;19.60;99.90
3644;DHT22;1838;50.742;7.158;2022-10-16T17:18:32;19.60;99.90
3644;DHT22;1838;50.742;7.158;2022-10-16T17:21:02;19.50;99.90
3644;DHT22;1838;50.742;7.158;2022-10-16T17:23:28;19.50;99.90
3644;DHT22;1838;50.742;7.158;2022-10-16T17:25:54;19.50;99.90
3644;DHT22;1838;50.742;7.158;2022-10-16T17:28:20;19.50;99.90
3644;DHT22;1838;50.742;7.158;2022-10-16T17:30:45;19.60;99.90
3644;DHT22;1838;50.742;7.158;2022-10-16T17:33:12;19.60;99.90
3644;DHT22;1838;50.742;7.158;2022-10-16T17:35:39;19.60;99.90
3644;DHT22;1838;50.742;7.158;2022-10-16T17:38:04;19.50;99.90
3644;DHT22;1838;50.742;7.158;2022-10-16T17:40:30;19.60;99.90
3644;DHT22;1838;50.742;7.158;2022-10-16T17:42:56;19.60;99.90
3644;DHT22;1838;50.742;7.158;2022-10-16T17:45:21;19.50;99.90
3644;DHT22;1838;50.742;7.158;2022-10-16T17:47:47;19.50;99.90
3644;DHT22;1838;50.742;7.158;2022-10-16T17:50:12;19.50;99.90
3644;DHT22;1838;50.742;7.158;2022-10-16T17:52:38;19.50;99.90
3644;DHT22;1838;50.742;7.158;2022-10-16T17:55:04;19.50;99.90
3644;DHT22;1838;50.742;7.158;2022-10-16T17:57:29;19.40;99.90
3644;DHT22;1838;50.742;7.158;2022-10-16T17:59:55;19.40;99.90
3644;DHT22;1838;50.742;7.158;2022-10-16T18:02:21;19.40;99.90